Time;durP1;ratioP1;P1;durP2;ratioP2;P2;SDS_P1;SDS_P2;PMS_P1;PMS_P2;Temp;Humidity;BMP_temperature;BMP_pressure;BME280_temperature;BME280_humidity;BME280_pressure;Samples;Min_cycle;Max_cycle;Signal;HPM_P1;HPM_P2
2021/09/19 00:00:12;;;;;;;4.43;4.03;;;;;;;14.25;100.00;96183.09;5032466;28;20289;-78
2021/09/19 00:02:40;;;;;;;4.53;4.10;;;;;;;14.53;100.00;96182.44;5032420;28;20190;-78
2021/09/19 00:05:09;;;;;;;5.27;4.03;;;;;;;14.62;100.00;96176.06;5032680;28;20237;-78
2021/09/19 00:07:36;;;;;;;4.60;4.30;;;;;;;14.57;100.00;96180.25;5032155;28;20198;-77
2021/09/19 00:10:07;;;;;;;5.20;4.80;;;;;;;14.50;100.00;96164.28;5032398;28;20600;-77
2021/09/19 00:12:34;;;;;;;4.27;3.93;;;;;;;14.44;100.00;96162.34;5032101;28;20183;-77
2021/09/19 00:15:01;;;;;;;5.50;5.00;;;;;;;14.35;100.00;96160.84;5031992;28;20301;-77
2021/09/19 00:17:29;;;;;;;4.93;4.53;;;;;;;14.47;100.00;96156.69;5031839;28;20198;-77
2021/09/19 00:19:56;;;;;;;5.03;4.63;;;;;;;14.37;100.00;96162.28;5031938;28;20655;-77
2021/09/19 00:22:23;;;;;;;4.40;4.10;;;;;;;14.42;100.00;96169.66;5032332;28;20202;-77
2021/09/19 00:24:51;;;;;;;4.03;3.73;;;;;;;14.31;100.00;96167.50;5031863;28;20194;-77
2021/09/19 00:27:20;;;;;;;5.67;4.43;;;;;;;14.17;100.00;96169.16;5031931;28;20203;-78
2021/09/19 00:29:48;;;;;;;5.20;4.13;;;;;;;14.09;100.00;96171.88;5032154;28;20226;-77
2021/09/19 00:32:15;;;;;;;4.13;3.83;;;;;;;14.21;100.00;96162.50;5031918;28;20234;-77
2021/09/19 00:34:42;;;;;;;5.13;4.63;;;;;;;14.14;100.00;96156.31;5031780;28;20663;-78
2021/09/19 00:37:10;;;;;;;5.27;4.47;;;;;;;14.18;100.00;96166.31;5031906;28;20293;-78
2021/09/19 00:39:37;;;;;;;4.87;4.47;;;;;;;14.40;100.00;96172.47;5031770;28;20616;-78
2021/09/19 00:42:05;;;;;;;4.90;4.50;;;;;;;14.03;100.00;96174.25;5032185;28;20205;-78
2021/09/19 00:44:34;;;;;;;5.13;4.73;;;;;;;14.07;100.00;96165.97;5031563;28;20242;-78
2021/09/19 00:47:01;;;;;;;4.70;4.30;;;;;;;14.29;100.00;96154.44;5031632;28;20198;-78
2021/09/19 00:49:29;;;;;;;4.60;4.30;;;;;;;14.29;100.00;96162.38;5031386;28;20292;-77
2021/09/19 00:51:56;;;;;;;5.33;4.83;;;;;;;14.34;100.00;96151.25;5031808;28;20203;-77
2021/09/19 00:54:24;;;;;;;4.63;4.30;;;;;;;14.26;100.00;96152.19;5031345;28;20612;-77
2021/09/19 00:56:56;;;;;;;4.47;4.13;;;;;;;14.06;100.00;96159.03;5031462;28;20596;-78
2021/09/19 00:59:25;;;;;;;4.37;4.03;;;;;;;14.18;100.00;96160.22;5033410;28;20218;-77
2021/09/19 01:01:54;;;;;;;4.97;4.57;;;;;;;13.96;100.00;96168.06;5035710;28;20297;-78
2021/09/19 01:04:22;;;;;;;4.60;4.20;;;;;;;14.23;100.00;96173.69;5035390;28;20233;-77
2021/09/19 01:06:50;;;;;;;4.33;4.03;;;;;;;14.28;100.00;96174.78;5035970;28;20298;-78
2021/09/19 01:09:17;;;;;;;4.53;4.13;;;;;;;14.33;100.00;96168.94;5035342;28;20221;-77
2021/09/19 01:11:45;;;;;;;4.10;3.70;;;;;;;14.36;100.00;96173.03;5035844;28;20199;-77
2021/09/19 01:14:15;;;;;;;4.57;4.27;;;;;;;14.49;100.00;96181.97;5035570;28;20208;-78
2021/09/19 01:16:43;;;;;;;5.07;4.67;;;;;;;14.59;100.00;96176.41;5035155;28;20218;-77
2021/09/19 01:19:18;;;;;;;4.80;4.30;;;;;;;14.54;100.00;96177.97;5035201;28;20199;-77
2021/09/19 01:21:46;;;;;;;4.73;4.33;;;;;;;14.44;100.00;96178.22;5035338;28;20193;-78
2021/09/19 01:24:15;;;;;;;4.50;4.20;;;;;;;14.19;100.00;96161.84;5035085;28;20205;-78
2021/09/19 01:26:42;;;;;;;4.90;4.60;;;;;;;14.34;100.00;96165.31;5035239;28;20235;-78
2021/09/19 01:29:10;;;;;;;4.77;4.47;;;;;;;14.52;100.00;96164.94;5034634;28;20294;-78
2021/09/19 01:31:38;;;;;;;5.07;4.57;;;;;;;14.70;100.00;96160.06;5035181;28;20281;-78
2021/09/19 01:34:06;;;;;;;5.57;4.17;;;;;;;14.69;100.00;96166.38;5035137;28;20203;-78
2021/09/19 01:36:36;;;;;;;4.80;4.40;;;;;;;14.55;100.00;96164.56;5035032;28;20560;-78
2021/09/19 01:39:05;;;;;;;5.10;4.70;;;;;;;14.78;100.00;96153.81;5034798;28;20234;-78
2021/09/19 01:41:34;;;;;;;4.87;4.30;;;;;;;14.95;100.00;96155.22;5035045;28;20202;-77
2021/09/19 01:44:02;;;;;;;5.27;4.87;;;;;;;14.80;100.00;96151.00;5034669;28;20203;-78
2021/09/19 01:46:30;;;;;;;5.93;4.37;;;;;;;14.81;100.00;96142.06;5034823;28;20209;-78
2021/09/19 01:48:57;;;;;;;4.83;4.20;;;;;;;14.86;100.00;96153.72;5034635;28;20290;-77
2021/09/19 01:51:24;;;;;;;4.63;4.33;;;;;;;14.89;100.00;96171.03;5034744;28;20223;-77
2021/09/19 01:53:52;;;;;;;4.30;3.97;;;;;;;14.92;100.00;96173.31;5034025;28;20227;-78
2021/09/19 01:56:21;;;;;;;5.33;4.93;;;;;;;15.01;100.00;96169.53;5034921;28;20565;-77
2021/09/19 01:58:53;;;;;;;4.60;4.20;;;;;;;14.98;100.00;96161.97;5034616;28;20273;-77
2021/09/19 02:01:21;;;;;;;4.50;4.20;;;;;;;15.00;100.00;96159.97;5034636;28;20188;-78
2021/09/19 02:03:50;;;;;;;4.30;3.90;;;;;;;15.04;100.00;96163.06;5034378;28;20203;-77
2021/09/19 02:06:17;;;;;;;5.27;4.87;;;;;;;15.22;100.00;96166.06;5034806;28;20205;-78
2021/09/19 02:08:45;;;;;;;4.50;4.20;;;;;;;15.24;100.00;96179.94;5034235;28;20665;-78
2021/09/19 02:11:15;;;;;;;4.90;4.50;;;;;;;15.15;100.00;96173.94;5033556;28;20223;-77
2021/09/19 02:13:44;;;;;;;6.03;4.87;;;;;;;15.33;100.00;96162.09;5034367;28;20671;-77
2021/09/19 02:16:13;;;;;;;4.90;4.27;;;;;;;15.32;100.00;96165.75;5034362;28;20202;-78
2021/09/19 02:18:41;;;;;;;3.93;3.63;;;;;;;15.29;100.00;96166.94;5034068;28;20199;-77
2021/09/19 02:21:11;;;;;;;5.97;4.70;;;;;;;15.33;100.00;96162.09;5034393;28;20200;-78
2021/09/19 02:23:38;;;;;;;6.17;4.90;;;;;;;15.27;100.00;96152.25;5034630;28;20203;-78
2021/09/19 02:26:07;;;;;;;4.93;4.53;;;;;;;15.21;100.00;96156.50;5034180;28;20750;-78
2021/09/19 02:28:34;;;;;;;4.37;4.07;;;;;;;15.28;100.00;96159.22;5033900;28;20296;-77
2021/09/19 02:31:02;;;;;;;5.30;4.37;;;;;;;15.09;100.00;96150.06;5033759;28;20224;-78
2021/09/19 02:33:31;;;;;;;4.80;3.90;;;;;;;15.22;100.00;96140.41;5033792;28;20260;-77
2021/09/19 02:35:58;;;;;;;3.90;3.60;;;;;;;15.18;100.00;96146.28;5034575;28;20245;-77
2021/09/19 02:38:25;;;;;;;4.40;4.00;;;;;;;15.29;100.00;96142.31;5033461;28;20205;-78
2021/09/19 02:40:53;;;;;;;6.30;4.83;;;;;;;15.34;100.00;96139.88;5033875;28;20257;-78
2021/09/19 02:43:22;;;;;;;4.37;4.07;;;;;;;15.16;100.00;96141.16;5033900;28;20226;-78
2021/09/19 02:45:50;;;;;;;4.97;4.57;;;;;;;14.92;100.00;96131.78;5034131;28;20232;-78
2021/09/19 02:48:17;;;;;;;4.33;3.90;;;;;;;14.77;100.00;96130.22;5033321;28;20199;-78
2021/09/19 02:50:46;;;;;;;5.03;4.20;;;;;;;14.73;100.00;96132.41;5034013;28;20251;-77
2021/09/19 02:53:13;;;;;;;4.17;3.77;;;;;;;14.78;100.00;96135.31;5033225;28;20258;-77
2021/09/19 02:55:41;;;;;;;4.50;4.00;;;;;;;14.72;100.00;96134.25;5033497;28;20199;-77
2021/09/19 02:58:08;;;;;;;3.93;3.63;;;;;;;14.76;100.00;96142.63;5033370;28;20734;-77
2021/09/19 03:00:36;;;;;;;3.70;3.40;;;;;;;15.14;100.00;96139.75;5033477;28;20200;-77
2021/09/19 03:03:03;;;;;;;4.03;3.73;;;;;;;15.36;100.00;96128.09;5033610;28;20195;-78
2021/09/19 03:05:31;;;;;;;3.80;3.60;;;;;;;15.37;100.00;96142.97;5033271;28;20220;-77
2021/09/19 03:07:59;;;;;;;4.27;3.97;;;;;;;15.45;100.00;96134.91;5033141;28;20238;-77
2021/09/19 03:10:27;;;;;;;4.10;3.80;;;;;;;15.39;100.00;96148.09;5033528;28;20327;-78
2021/09/19 03:12:54;;;;;;;4.43;4.13;;;;;;;15.30;100.00;96144.75;5033044;28;20654;-77
2021/09/19 03:15:22;;;;;;;4.73;4.33;;;;;;;15.28;100.00;96149.44;5032975;28;20240;-78
2021/09/19 03:17:49;;;;;;;4.07;3.77;;;;;;;15.07;100.00;96150.25;5033367;28;20224;-77
2021/09/19 03:20:18;;;;;;;4.33;3.77;;;;;;;14.86;100.00;96153.72;5033147;28;20781;-77
2021/09/19 03:22:46;;;;;;;5.97;4.20;;;;;;;14.72;100.00;96133.41;5031904;28;20294;-77
2021/09/19 03:25:15;;;;;;;5.40;4.60;;;;;;;15.06;100.00;96135.38;5033043;28;20288;-78
2021/09/19 03:27:44;;;;;;;4.30;3.87;;;;;;;15.01;100.00;96153.66;5032798;28;20262;-77
2021/09/19 03:30:14;;;;;;;5.10;4.23;;;;;;;15.04;100.00;96152.47;5032898;28;20224;-77
2021/09/19 03:32:42;;;;;;;4.60;4.30;;;;;;;14.96;100.00;96154.22;5032628;28;20249;-78
2021/09/19 03:35:10;;;;;;;4.67;4.27;;;;;;;15.21;100.00;96159.16;5032940;28;20283;-77
2021/09/19 03:37:38;;;;;;;4.30;4.00;;;;;;;15.08;100.00;96159.00;5032877;28;20202;-78
2021/09/19 03:40:07;;;;;;;4.57;3.83;;;;;;;14.89;100.00;96160.44;5032683;28;20239;-78
2021/09/19 03:42:36;;;;;;;5.17;3.77;;;;;;;14.90;100.00;96167.41;5033052;28;20203;-77
2021/09/19 03:45:04;;;;;;;5.93;4.33;;;;;;;15.13;100.00;96167.19;5032645;28;20199;-77
2021/09/19 03:47:33;;;;;;;3.93;3.63;;;;;;;15.11;100.00;96169.22;5032199;28;20663;-77
2021/09/19 03:50:00;;;;;;;7.17;4.13;;;;;;;15.19;100.00;96174.38;5032438;28;20203;-78
2021/09/19 03:52:27;;;;;;;5.50;3.93;;;;;;;15.16;100.00;96174.75;5032526;28;20200;-78
2021/09/19 03:54:55;;;;;;;4.23;3.93;;;;;;;15.16;100.00;96165.00;5032411;28;20296;-77
2021/09/19 03:57:22;;;;;;;4.07;3.43;;;;;;;15.10;100.00;96168.41;5032226;28;20287;-78
2021/09/19 03:59:51;;;;;;;4.83;4.03;;;;;;;15.08;100.00;96174.91;5030455;28;20232;-79
2021/09/19 04:02:18;;;;;;;3.90;3.60;;;;;;;14.92;100.00;96182.06;5052045;28;20197;-80
2021/09/19 04:04:45;;;;;;;4.07;3.77;;;;;;;15.01;100.00;96190.72;5052081;28;20208;-79
2021/09/19 04:07:12;;;;;;;3.93;3.63;;;;;;;14.91;100.00;96187.53;5052014;28;20200;-78
2021/09/19 04:09:39;;;;;;;3.80;3.20;;;;;;;14.59;100.00;96188.81;5051887;28;20214;-79
2021/09/19 04:12:07;;;;;;;4.27;3.87;;;;;;;14.80;100.00;96201.28;5051909;28;20222;-78
2021/09/19 04:14:34;;;;;;;3.83;3.60;;;;;;;14.79;100.00;96203.09;5051904;28;20805;-79
2021/09/19 04:17:03;;;;;;;3.80;3.50;;;;;;;14.73;100.00;96198.56;5051856;28;20206;-78
2021/09/19 04:19:30;;;;;;;4.70;4.13;;;;;;;14.77;100.00;96194.53;5051677;28;20199;-78
2021/09/19 04:21:57;;;;;;;5.83;5.33;;;;;;;14.65;100.00;96188.06;5052133;28;20204;-78
2021/09/19 04:24:25;;;;;;;6.27;5.80;;;;;;;14.63;100.00;96187.44;5051467;28;20208;-78
2021/09/19 04:26:52;;;;;;;6.17;5.77;;;;;;;14.44;100.00;96183.50;5051886;28;20204;-78
2021/09/19 04:29:19;;;;;;;5.37;4.93;;;;;;;14.54;100.00;96180.59;5051915;28;20202;-79
2021/09/19 04:31:46;;;;;;;6.57;5.43;;;;;;;14.61;100.00;96190.25;5052194;28;20226;-79
2021/09/19 04:34:15;;;;;;;4.87;4.57;;;;;;;14.74;100.00;96184.31;5051922;28;20200;-78
2021/09/19 04:36:42;;;;;;;5.70;4.10;;;;;;;14.57;100.00;96182.88;5051752;28;20198;-78
2021/09/19 04:39:09;;;;;;;4.20;3.80;;;;;;;14.40;100.00;96193.63;5051454;28;20201;-78
2021/09/19 04:41:36;;;;;;;4.17;3.87;;;;;;;14.58;100.00;96203.03;5051597;28;20195;-78
2021/09/19 04:44:04;;;;;;;4.10;3.80;;;;;;;14.66;100.00;96203.75;5051444;28;20689;-79
2021/09/19 04:46:32;;;;;;;4.03;3.73;;;;;;;14.77;100.00;96199.00;5051874;28;20198;-78
2021/09/19 04:48:59;;;;;;;4.60;4.30;;;;;;;14.58;100.00;96208.31;5051691;28;20200;-79
2021/09/19 04:51:28;;;;;;;4.10;3.80;;;;;;;14.57;100.00;96202.22;5051430;28;20228;-78
2021/09/19 04:53:55;;;;;;;5.10;4.27;;;;;;;14.86;100.00;96206.63;5050870;28;20253;-77
2021/09/19 04:56:22;;;;;;;4.37;3.97;;;;;;;14.76;100.00;96211.41;5051547;28;20205;-78
2021/09/19 04:58:49;;;;;;;4.10;3.70;;;;;;;14.71;100.00;96205.84;5051293;28;20289;-78
2021/09/19 05:01:17;;;;;;;5.23;3.90;;;;;;;14.68;100.00;96198.28;5051868;28;20201;-79
2021/09/19 05:03:44;;;;;;;8.20;4.20;;;;;;;14.72;100.00;96196.88;5051171;28;20671;-78
2021/09/19 05:06:11;;;;;;;4.90;4.40;;;;;;;15.07;100.00;96186.50;5052095;28;20281;-79
2021/09/19 05:08:40;;;;;;;3.60;3.30;;;;;;;15.23;100.00;96170.34;5051332;28;20619;-78
2021/09/19 05:11:08;;;;;;;4.30;3.93;;;;;;;15.23;100.00;96175.66;5051233;28;20698;-77
2021/09/19 05:13:35;;;;;;;6.33;3.57;;;;;;;15.27;100.00;96174.25;5051604;28;20206;-77
2021/09/19 05:16:02;;;;;;;4.60;4.20;;;;;;;15.23;100.00;96180.94;5051476;28;20765;-77
2021/09/19 05:18:30;;;;;;;3.93;3.63;;;;;;;15.21;100.00;96189.09;5051462;28;20203;-77
2021/09/19 05:20:57;;;;;;;4.40;4.10;;;;;;;15.26;100.00;96188.50;5037297;28;20286;-77
2021/09/19 05:23:24;;;;;;;5.43;4.93;;;;;;;15.35;100.00;96213.84;5031203;28;20298;-76
2021/09/19 05:25:53;;;;;;;5.50;5.10;;;;;;;15.23;100.00;96210.06;5031123;28;20206;-76
2021/09/19 05:28:20;;;;;;;6.00;5.50;;;;;;;15.30;100.00;96189.75;5031397;28;20199;-76
2021/09/19 05:30:47;;;;;;;20.13;17.60;;;;;;;15.38;100.00;96186.19;5031173;28;20226;-76
2021/09/19 05:33:14;;;;;;;21.93;19.63;;;;;;;15.31;100.00;96182.63;5031229;28;20544;-76
2021/09/19 05:35:42;;;;;;;16.67;8.80;;;;;;;15.45;100.00;96168.53;5031088;28;20206;-76
2021/09/19 05:38:09;;;;;;;7.27;6.57;;;;;;;15.46;100.00;96172.78;5031273;28;20201;-76
2021/09/19 05:40:37;;;;;;;6.33;5.73;;;;;;;15.53;100.00;96180.81;5031447;28;20204;-77
2021/09/19 05:43:06;;;;;;;5.53;4.63;;;;;;;15.28;100.00;96194.44;5030776;28;20207;-78
2021/09/19 05:45:34;;;;;;;5.77;5.30;;;;;;;15.46;100.00;96194.81;5031406;28;20199;-77
2021/09/19 05:48:01;;;;;;;5.30;4.80;;;;;;;15.41;100.00;96209.59;5034455;28;20568;-76
2021/09/19 05:50:28;;;;;;;9.00;4.90;;;;;;;15.55;100.00;96200.78;5034905;28;20197;-76
2021/09/19 05:52:55;;;;;;;5.63;4.83;;;;;;;15.66;100.00;96184.41;5033824;28;20228;-77
2021/09/19 05:55:23;;;;;;;5.03;4.53;;;;;;;15.84;100.00;96193.69;5034644;28;20227;-77
2021/09/19 05:57:50;;;;;;;7.23;6.63;;;;;;;16.00;100.00;96192.56;5034445;28;20205;-76
2021/09/19 06:00:19;;;;;;;19.03;17.00;;;;;;;16.14;100.00;96188.97;5034645;28;20554;-77
2021/09/19 06:02:46;;;;;;;10.00;9.00;;;;;;;16.30;100.00;96201.94;5034097;28;20558;-76
2021/09/19 06:05:14;;;;;;;5.87;5.33;;;;;;;16.54;100.00;96203.28;5034819;28;20203;-76
2021/09/19 06:07:41;;;;;;;5.10;4.67;;;;;;;16.79;100.00;96211.56;5034241;28;20563;-76
2021/09/19 06:10:10;;;;;;;5.00;4.50;;;;;;;17.00;100.00;96221.22;5034292;28;20755;-76
2021/09/19 06:12:37;;;;;;;5.20;4.70;;;;;;;17.18;100.00;96236.63;5034139;28;20236;-76
2021/09/19 06:15:05;;;;;;;5.23;4.83;;;;;;;17.27;100.00;96239.91;5034701;28;20634;-76
2021/09/19 06:17:34;;;;;;;5.33;4.83;;;;;;;17.27;100.00;96234.59;5034227;28;20212;-76
2021/09/19 06:20:02;;;;;;;5.47;4.90;;;;;;;17.28;100.00;96233.56;5034075;28;20198;-76
2021/09/19 06:22:29;;;;;;;5.10;4.60;;;;;;;17.40;100.00;96231.97;5033998;28;20289;-76
2021/09/19 06:24:57;;;;;;;6.27;4.90;;;;;;;17.51;100.00;96231.34;5034476;28;20205;-75
2021/09/19 06:27:24;;;;;;;4.83;4.43;;;;;;;17.48;100.00;96228.28;5038185;28;20724;-77
2021/09/19 06:29:52;;;;;;;5.10;4.67;;;;;;;17.57;100.00;96227.91;5054374;28;20323;-76
2021/09/19 06:32:19;;;;;;;4.00;3.70;;;;;;;17.56;100.00;96230.72;5053853;28;20313;-77
2021/09/19 06:34:48;;;;;;;4.97;4.57;;;;;;;17.50;100.00;96235.03;5054003;28;20197;-77
2021/09/19 06:37:15;;;;;;;5.37;4.53;;;;;;;17.40;100.00;96231.97;5054090;28;20280;-77
2021/09/19 06:39:42;;;;;;;5.90;5.40;;;;;;;17.63;100.00;96226.28;5053882;28;20201;-77
2021/09/19 06:42:09;;;;;;;5.07;4.67;;;;;;;17.68;100.00;96226.47;5053712;28;20685;-77
2021/09/19 06:44:36;;;;;;;5.07;4.63;;;;;;;17.74;100.00;96259.41;5053957;28;20288;-77
2021/09/19 06:47:04;;;;;;;4.73;4.03;;;;;;;17.80;100.00;96271.88;5053889;28;20591;-77
2021/09/19 06:49:31;;;;;;;3.70;3.47;;;;;;;17.95;100.00;96266.38;5053655;28;20667;-77
2021/09/19 06:52:00;;;;;;;4.00;3.70;;;;;;;18.43;100.00;96274.94;5053700;28;20222;-77
2021/09/19 06:54:27;;;;;;;5.20;4.70;;;;;;;18.67;100.00;96268.13;5053460;28;20244;-77
2021/09/19 06:56:54;;;;;;;4.17;3.87;;;;;;;19.07;100.00;96265.34;5053284;28;20237;-77
2021/09/19 06:59:21;;;;;;;3.97;3.67;;;;;;;19.30;100.00;96278.16;5053529;28;20688;-77
2021/09/19 07:01:49;;;;;;;4.50;4.03;;;;;;;19.31;100.00;96293.09;5053240;28;20194;-77
2021/09/19 07:04:16;;;;;;;3.70;3.50;;;;;;;19.29;100.00;96287.16;5053380;28;20200;-77
2021/09/19 07:06:45;;;;;;;3.50;3.20;;;;;;;18.99;100.00;96295.69;5053054;28;20202;-77
2021/09/19 07:09:14;;;;;;;3.63;3.33;;;;;;;18.96;100.00;96282.78;5052960;28;20233;-77
2021/09/19 07:11:41;;;;;;;4.40;3.73;;;;;;;19.10;100.00;96296.88;5052898;28;20221;-77
2021/09/19 07:14:08;;;;;;;4.17;3.23;;;;;;;19.01;100.00;96296.28;5053137;28;20208;-77
2021/09/19 07:16:36;;;;;;;3.60;3.30;;;;;;;19.15;100.00;96288.25;5053121;28;20206;-77
2021/09/19 07:19:03;;;;;;;3.33;2.83;;;;;;;19.22;100.00;96313.84;5052930;28;20293;-77
2021/09/19 07:21:30;;;;;;;3.57;3.27;;;;;;;19.65;100.00;96318.56;5052794;28;20239;-77
2021/09/19 07:23:57;;;;;;;3.27;2.60;;;;;;;20.10;100.00;96333.66;5052514;28;20208;-77
2021/09/19 07:26:26;;;;;;;2.57;2.37;;;;;;;20.53;100.00;96340.94;5053186;28;20206;-77
2021/09/19 07:28:54;;;;;;;3.20;3.00;;;;;;;20.34;100.00;96345.38;5051985;28;20198;-76
2021/09/19 07:31:21;;;;;;;3.20;2.90;;;;;;;20.14;100.00;96351.69;5052684;28;20765;-76
2021/09/19 07:33:50;;;;;;;2.80;2.60;;;;;;;19.90;100.00;96334.63;5052746;28;20194;-77
2021/09/19 07:36:24;;;;;;;2.97;2.77;;;;;;;20.16;100.00;96338.94;5052733;28;20260;-76
2021/09/19 07:38:51;;;;;;;22.00;3.47;;;;;;;20.16;100.00;96352.28;5052670;28;20205;-76
2021/09/19 07:41:19;;;;;;;3.27;3.07;;;;;;;20.17;100.00;96347.78;5053184;28;20280;-76
2021/09/19 07:43:48;;;;;;;3.83;2.47;;;;;;;20.02;100.00;96350.75;5052505;28;20288;-76
2021/09/19 07:46:17;;;;;;;3.00;2.80;;;;;;;20.17;100.00;96329.91;5052836;28;20603;-77
2021/09/19 07:48:44;;;;;;;3.10;2.90;;;;;;;20.17;100.00;96331.75;5052227;28;20282;-77
2021/09/19 07:51:12;;;;;;;2.80;2.60;;;;;;;19.76;100.00;96337.59;5052725;28;20796;-77
2021/09/19 07:53:40;;;;;;;2.90;2.70;;;;;;;19.73;100.00;96317.50;5052197;28;20265;-76
2021/09/19 07:56:08;;;;;;;3.03;2.83;;;;;;;19.70;100.00;96313.41;5052243;28;20233;-76
2021/09/19 07:58:35;;;;;;;3.10;2.90;;;;;;;19.86;100.00;96301.41;5052187;28;20201;-77
2021/09/19 08:01:05;;;;;;;3.77;3.17;;;;;;;20.21;100.00;96303.59;5052314;28;20197;-77
2021/09/19 08:03:32;;;;;;;4.20;3.90;;;;;;;20.58;100.00;96307.19;5052051;28;20634;-77
2021/09/19 08:05:59;;;;;;;3.63;3.43;;;;;;;20.77;100.00;96320.56;5052573;28;20236;-76
2021/09/19 08:08:26;;;;;;;4.83;4.00;;;;;;;21.01;100.00;96314.34;5051338;28;20198;-76
2021/09/19 08:10:54;;;;;;;4.30;3.90;;;;;;;21.03;100.00;96320.28;5052503;28;20223;-76
2021/09/19 08:13:21;;;;;;;3.90;3.40;;;;;;;21.35;100.00;96322.81;5052197;28;20221;-76
2021/09/19 08:15:48;;;;;;;3.97;3.67;;;;;;;21.90;100.00;96328.03;5052063;28;20237;-76
2021/09/19 08:18:17;;;;;;;3.50;3.20;;;;;;;22.16;100.00;96334.84;5051703;28;20209;-76
2021/09/19 08:20:45;;;;;;;3.77;3.53;;;;;;;22.57;100.00;96335.03;5052028;28;20229;-76
2021/09/19 08:23:12;;;;;;;5.63;3.93;;;;;;;22.18;100.00;96326.63;5051858;28;20194;-76
2021/09/19 08:25:39;;;;;;;5.70;4.43;;;;;;;22.58;100.00;96331.28;5052434;28;20229;-76
2021/09/19 08:28:07;;;;;;;7.83;3.77;;;;;;;23.09;100.00;96327.09;5051534;28;20200;-76
2021/09/19 08:30:34;;;;;;;4.47;3.37;;;;;;;22.96;100.00;96333.50;5052250;28;20216;-77
2021/09/19 08:33:01;;;;;;;4.23;3.20;;;;;;;23.19;100.00;96319.25;5051560;28;20221;-77
2021/09/19 08:35:30;;;;;;;3.80;3.50;;;;;;;23.36;100.00;96330.06;5051858;28;20322;-76
2021/09/19 08:37:57;;;;;;;3.97;3.67;;;;;;;23.78;100.00;96336.00;5051795;28;20206;-77
2021/09/19 08:40:25;;;;;;;5.23;3.83;;;;;;;24.04;100.00;96337.28;5052073;28;20284;-77
2021/09/19 08:42:54;;;;;;;3.87;3.33;;;;;;;24.00;100.00;96337.97;5051608;28;20284;-77
2021/09/19 08:45:22;;;;;;;3.47;3.20;;;;;;;23.35;100.00;96339.97;5051708;28;20237;-76
2021/09/19 08:47:50;;;;;;;3.67;3.37;;;;;;;24.09;100.00;96331.97;5051345;28;20204;-77
2021/09/19 08:50:18;;;;;;;4.20;3.10;;;;;;;23.98;100.00;96335.56;5051998;28;20259;-76
2021/09/19 08:52:47;;;;;;;3.37;3.17;;;;;;;24.43;100.00;96340.91;5051270;28;20225;-76
2021/09/19 08:55:14;;;;;;;3.93;3.50;;;;;;;24.37;100.00;96335.66;5051620;28;20232;-78
2021/09/19 08:57:42;;;;;;;3.37;3.10;;;;;;;24.79;100.00;96336.06;5051240;28;20201;-78
2021/09/19 09:00:11;;;;;;;3.73;3.30;;;;;;;24.94;100.00;96330.09;5051544;28;20319;-76
2021/09/19 09:02:50;;;;;;;3.47;3.23;;;;;;;24.52;100.00;96341.28;5051438;28;20194;-77
2021/09/19 09:05:23;;;;;;;3.80;3.50;;;;;;;24.67;100.00;96341.53;5051376;28;20190;-76
2021/09/19 09:07:57;;;;;;;4.13;3.80;;;;;;;24.75;100.00;96340.31;5051434;28;20281;-78
2021/09/19 09:10:34;;;;;;;4.13;3.57;;;;;;;24.93;100.00;96328.47;5051521;28;20582;-77
2021/09/19 09:13:02;;;;;;;4.37;3.97;;;;;;;25.00;100.00;96330.97;5051621;28;20589;-76
2021/09/19 09:15:39;;;;;;;4.87;4.07;;;;;;;24.68;100.00;96335.09;5051144;28;20204;-77
2021/09/19 09:18:07;;;;;;;3.60;3.03;;;;;;;24.84;100.00;96341.53;5051614;28;20185;-77
2021/09/19 09:20:55;;;;;;;3.63;3.33;;;;;;;25.44;100.00;96339.09;5051809;28;20282;-77
2021/09/19 09:23:31;;;;;;;6.30;3.60;;;;;;;25.53;100.00;96332.22;5055447;28;20200;-77
2021/09/19 09:26:23;;;;;;;3.90;3.60;;;;;;;24.87;100.00;96340.19;5055283;28;20208;-77
2021/09/19 09:28:58;;;;;;;3.97;3.67;;;;;;;25.03;100.00;96330.47;5055135;28;20225;-77
2021/09/19 09:31:33;;;;;;;16.33;3.83;;;;;;;25.05;100.00;96331.88;5055246;28;20187;-77
2021/09/19 09:34:03;;;;;;;3.83;3.53;;;;;;;25.65;100.00;96332.88;5054900;28;20300;-77
2021/09/19 09:36:36;;;;;;;3.57;3.37;;;;;;;25.65;100.00;96332.88;5055027;28;20670;-77
2021/09/19 09:39:22;;;;;;;4.53;3.93;;;;;;;25.27;100.00;96328.41;5054669;28;20181;-77
2021/09/19 09:41:50;;;;;;;3.37;3.10;;;;;;;25.65;100.00;96327.50;5055050;28;20580;-77
2021/09/19 09:44:35;;;;;;;4.27;3.90;;;;;;;25.56;100.00;96334.38;5054817;28;20194;-77
2021/09/19 09:47:08;;;;;;;4.00;3.70;;;;;;;25.53;100.00;96319.56;5054689;28;20197;-77
2021/09/19 09:49:38;;;;;;;4.23;3.67;;;;;;;25.66;100.00;96329.13;5054964;28;20186;-77
2021/09/19 09:52:07;;;;;;;4.70;3.40;;;;;;;25.84;100.00;96326.13;5055052;28;20313;-76
2021/09/19 09:54:45;;;;;;;5.13;3.47;;;;;;;25.78;100.00;96316.34;5054387;28;20233;-77
2021/09/19 09:57:12;;;;;;;3.93;3.63;;;;;;;24.87;100.00;96319.53;5054776;28;20193;-76
2021/09/19 09:59:44;;;;;;;4.40;3.80;;;;;;;24.42;100.00;96309.72;5054512;28;20216;-77
2021/09/19 10:02:15;;;;;;;4.03;3.80;;;;;;;24.43;100.00;96305.97;5054665;28;20188;-77
2021/09/19 10:04:44;;;;;;;3.97;3.67;;;;;;;25.48;100.00;96302.53;5054462;28;20243;-77
2021/09/19 10:07:12;;;;;;;4.47;4.10;;;;;;;25.89;100.00;96311.91;5054829;28;20631;-77
2021/09/19 10:09:42;;;;;;;3.70;3.40;;;;;;;25.53;100.00;96305.31;5053965;28;20356;-77
2021/09/19 10:12:11;;;;;;;5.38;4.88;;;;;;;25.73;100.00;96300.13;5054546;28;20663;-77
2021/09/19 10:14:38;;;;;;;4.82;4.05;;;;;;;25.74;100.00;96301.75;5054543;28;20648;-77
2021/09/19 10:17:06;;;;;;;5.68;3.58;;;;;;;26.14;100.00;96300.53;5054548;28;20280;-77
2021/09/19 10:19:34;;;;;;;4.22;3.40;;;;;;;26.39;100.00;96305.31;5053865;28;20576;-77
2021/09/19 10:22:02;;;;;;;3.45;3.25;;;;;;;27.04;100.00;96292.53;5054480;28;20208;-77
2021/09/19 10:24:37;;;;;;;3.30;3.10;;;;;;;26.41;100.00;96296.97;5054316;28;20649;-77
2021/09/19 10:27:22;;;;;;;3.78;3.03;;;;;;;26.82;100.00;96294.59;5054366;28;20193;-77
2021/09/19 10:29:50;;;;;;;3.55;3.33;;;;;;;26.63;100.00;96283.41;5054244;28;20186;-77
2021/09/19 10:32:38;;;;;;;3.78;3.50;;;;;;;26.91;100.00;96293.00;5053712;28;20230;-77
2021/09/19 10:35:29;;;;;;;3.47;3.17;;;;;;;26.69;100.00;96293.97;5054103;28;20276;-77
2021/09/19 10:38:03;;;;;;;3.25;3.05;;;;;;;26.33;100.00;96295.59;5053851;28;20182;-77
2021/09/19 10:40:33;;;;;;;4.07;2.95;;;;;;;26.89;100.00;96292.47;5053976;28;20182;-77
2021/09/19 10:43:03;;;;;;;3.25;2.95;;;;;;;26.05;100.00;96277.84;5054008;28;20205;-77
2021/09/19 10:45:38;;;;;;;3.30;3.10;;;;;;;26.10;100.00;96280.56;5053795;28;20289;-77
2021/09/19 10:48:14;;;;;;;3.50;3.30;;;;;;;25.78;100.00;96280.53;5053363;28;20201;-77
2021/09/19 10:50:43;;;;;;;4.03;3.63;;;;;;;25.27;100.00;96271.91;5053757;28;20240;-77
2021/09/19 10:53:22;;;;;;;3.38;3.15;;;;;;;24.55;100.00;96275.50;5053024;28;20244;-77
2021/09/19 10:55:56;;;;;;;4.18;3.88;;;;;;;24.85;100.00;96265.19;5054220;28;20232;-77
2021/09/19 10:58:28;;;;;;;3.30;3.10;;;;;;;25.35;100.00;96258.00;5053764;28;20274;-77
2021/09/19 11:01:12;;;;;;;5.45;3.53;;;;;;;25.67;100.00;96258.09;5053610;28;20191;-77
2021/09/19 11:03:41;;;;;;;3.67;3.38;;;;;;;25.46;100.00;96265.13;5053603;28;20290;-77
2021/09/19 11:06:23;;;;;;;3.80;3.28;;;;;;;25.11;100.00;96258.31;5053941;28;20233;-77
2021/09/19 11:08:51;;;;;;;3.77;3.47;;;;;;;24.95;100.00;96258.31;5053232;28;20273;-77
2021/09/19 11:11:27;;;;;;;2.95;2.75;;;;;;;25.55;100.00;96257.41;5053087;28;20206;-77
2021/09/19 11:14:01;;;;;;;4.15;3.80;;;;;;;25.23;100.00;96244.72;5053311;28;20210;-77
2021/09/19 11:16:40;;;;;;;12.60;4.75;;;;;;;26.04;100.00;96236.63;5052689;28;20190;-76
2021/09/19 11:19:13;;;;;;;3.53;3.05;;;;;;;25.53;100.00;96240.72;5053294;28;20247;-77
2021/09/19 11:21:45;;;;;;;3.47;3.28;;;;;;;24.90;100.00;96245.63;5052868;28;20659;-77
2021/09/19 11:24:15;;;;;;;3.28;3.08;;;;;;;24.78;100.00;96237.69;5052967;28;20185;-77
2021/09/19 11:26:44;;;;;;;3.23;3.03;;;;;;;24.52;100.00;96236.50;5053214;28;20580;-77
2021/09/19 11:29:15;;;;;;;3.17;2.87;;;;;;;25.15;100.00;96239.78;5052501;28;20201;-77
2021/09/19 11:31:44;;;;;;;5.47;3.40;;;;;;;26.02;100.00;96232.56;5052836;28;20225;-78